Time;durP1;ratioP1;P1;durP2;ratioP2;P2;SDS_P1;SDS_P2;PMS_P1;PMS_P2;Temp;Humidity;BMP_temperature;BMP_pressure;BME280_temperature;BME280_humidity;BME280_pressure;Samples;Min_cycle;Max_cycle;Signal;HPM_P1;HPM_P2
2023/12/14 00:02:11;;;;;;;13.57;9.43;;;10.50;99.90;;;;;;4984707;28;20430;-25
2023/12/14 00:04:45;;;;;;;11.63;7.53;;;10.50;99.90;;;;;;4964594;28;20685;-24
2023/12/14 00:07:14;;;;;;;10.20;8.07;;;10.50;99.90;;;;;;4976677;28;20447;-25
2023/12/14 00:09:42;;;;;;;11.70;8.60;;;10.50;99.90;;;;;;4991838;28;20440;-24
2023/12/14 00:12:12;;;;;;;12.70;9.40;;;10.50;99.90;;;;;;4997791;28;20421;-25
2023/12/14 00:14:40;;;;;;;13.37;8.70;;;10.60;99.90;;;;;;4996890;28;21025;-25
2023/12/14 00:17:08;;;;;;;16.40;10.53;;;10.50;99.90;;;;;;4980749;28;20425;-26
2023/12/14 00:19:43;;;;;;;13.70;9.40;;;10.50;99.90;;;;;;4988938;28;20504;-24
2023/12/14 00:22:09;;;;;;;13.90;10.30;;;10.50;99.90;;;;;;4978573;28;20794;-24
2023/12/14 00:24:38;;;;;;;15.33;9.70;;;10.50;99.90;;;;;;4993772;28;20438;-25
2023/12/14 00:27:04;;;;;;;15.43;10.73;;;10.50;99.90;;;;;;4987805;28;20449;-25
2023/12/14 00:29:30;;;;;;;14.03;10.47;;;10.50;99.90;;;;;;4994813;28;20423;-24
2023/12/14 00:32:02;;;;;;;15.87;10.37;;;10.50;99.90;;;;;;4979173;28;20453;-24
2023/12/14 00:34:27;;;;;;;15.20;10.70;;;10.50;99.90;;;;;;4996797;28;20428;-25
2023/12/14 00:36:55;;;;;;;12.73;8.97;;;10.50;99.90;;;;;;4983678;28;20461;-25
2023/12/14 00:39:23;;;;;;;12.90;9.23;;;10.50;99.90;;;;;;4992547;28;20469;-25
2023/12/14 00:41:52;;;;;;;14.87;10.10;;;10.50;99.90;;;;;;4988215;28;20493;-24
2023/12/14 00:44:18;;;;;;;14.83;10.83;;;10.50;99.90;;;;;;4963693;28;20844;-25
2023/12/14 00:46:44;;;;;;;15.27;10.47;;;10.50;99.90;;;;;;4992104;28;20932;-25
2023/12/14 00:49:18;;;;;;;14.60;10.07;;;10.50;99.90;;;;;;4992202;28;20595;-24
2023/12/14 00:51:44;;;;;;;16.63;11.00;;;10.50;99.90;;;;;;4984812;28;20524;-25
2023/12/14 00:54:10;;;;;;;14.73;10.17;;;10.50;99.90;;;;;;4965347;28;20932;-25
2023/12/14 00:56:38;;;;;;;17.80;10.90;;;10.50;99.90;;;;;;4975873;28;20512;-25
2023/12/14 00:59:06;;;;;;;17.33;10.77;;;10.50;99.90;;;;;;4987914;28;20418;-26
2023/12/14 01:01:32;;;;;;;16.40;10.80;;;10.50;99.90;;;;;;4974858;28;20997;-25
2023/12/14 01:04:02;;;;;;;15.80;10.90;;;10.50;99.90;;;;;;4967398;28;20430;-25
2023/12/14 01:06:28;;;;;;;17.10;10.90;;;10.50;99.90;;;;;;4991100;28;21009;-25
2023/12/14 01:08:54;;;;;;;16.03;10.20;;;10.50;99.90;;;;;;4991556;28;20444;-25
2023/12/14 01:11:25;;;;;;;15.10;11.37;;;10.50;99.90;;;;;;4993002;28;20428;-26
2023/12/14 01:13:51;;;;;;;15.00;11.30;;;10.50;99.90;;;;;;4987649;28;20529;-25
2023/12/14 01:16:22;;;;;;;13.23;9.90;;;10.50;99.90;;;;;;4997514;28;20519;-25
2023/12/14 01:18:51;;;;;;;16.37;11.40;;;10.50;99.90;;;;;;4979173;28;21015;-25
2023/12/14 01:21:24;;;;;;;15.60;11.27;;;10.50;99.90;;;;;;4988496;28;20852;-25
2023/12/14 01:23:50;;;;;;;17.10;10.43;;;10.50;99.90;;;;;;4986549;28;20414;-25
2023/12/14 01:26:16;;;;;;;18.47;10.57;;;10.50;99.90;;;;;;4981348;28;21077;-25
2023/12/14 01:28:41;;;;;;;15.00;10.37;;;10.50;99.90;;;;;;4959729;28;20433;-25
2023/12/14 01:31:08;;;;;;;15.17;10.17;;;10.50;99.90;;;;;;4991956;28;20443;-25
2023/12/14 01:33:36;;;;;;;13.93;10.17;;;10.50;99.90;;;;;;4974663;28;20247;-24
2023/12/14 01:36:02;;;;;;;13.90;8.73;;;10.50;99.90;;;;;;4956266;28;20733;-24
2023/12/14 01:38:33;;;;;;;13.20;10.43;;;10.50;99.90;;;;;;4988594;28;20975;-24
2023/12/14 01:41:01;;;;;;;15.37;10.00;;;10.50;99.90;;;;;;4978430;28;20443;-25
2023/12/14 01:43:30;;;;;;;12.90;9.70;;;10.50;99.90;;;;;;4953360;28;20441;-25
2023/12/14 01:45:56;;;;;;;13.57;8.73;;;10.50;99.90;;;;;;4986646;28;20460;-26
2023/12/14 01:48:24;;;;;;;12.07;9.20;;;10.50;99.90;;;;;;4995519;28;20833;-24
2023/12/14 01:50:50;;;;;;;11.27;8.40;;;10.40;99.90;;;;;;4985998;28;21268;-25
2023/12/14 01:53:20;;;;;;;11.23;8.30;;;10.50;99.90;;;;;;4986105;28;20511;-24
2023/12/14 01:55:47;;;;;;;11.10;8.67;;;10.50;99.90;;;;;;4990368;28;21090;-25
2023/12/14 01:58:13;;;;;;;9.87;7.50;;;10.40;99.90;;;;;;4983821;28;20422;-25
2023/12/14 02:00:52;;;;;;;10.80;7.97;;;10.50;99.90;;;;;;4990762;28;20796;-25
2023/12/14 02:03:21;;;;;;;10.30;8.30;;;10.50;99.90;;;;;;4985504;28;20952;-24
2023/12/14 02:05:47;;;;;;;11.13;7.37;;;10.40;99.90;;;;;;4973172;28;20452;-24
2023/12/14 02:08:15;;;;;;;10.33;7.70;;;10.50;99.90;;;;;;4978444;28;20876;-25
2023/12/14 02:10:41;;;;;;;10.67;8.40;;;10.40;99.90;;;;;;4976366;28;20955;-25
2023/12/14 02:13:07;;;;;;;11.80;8.50;;;10.40;99.90;;;;;;4987341;28;20438;-25
2023/12/14 02:15:33;;;;;;;10.40;8.00;;;10.40;99.90;;;;;;4973963;28;20477;-25
2023/12/14 02:18:01;;;;;;;9.17;7.67;;;10.40;99.90;;;;;;4979007;28;20424;-25
2023/12/14 02:20:29;;;;;;;8.83;7.40;;;10.40;99.90;;;;;;4970217;28;20584;-25
2023/12/14 02:22:55;;;;;;;10.03;7.37;;;10.40;99.90;;;;;;4991051;28;20428;-25
2023/12/14 02:25:23;;;;;;;12.07;8.43;;;10.40;99.90;;;;;;4976351;28;21338;-25
2023/12/14 02:27:52;;;;;;;8.33;7.07;;;10.40;99.90;;;;;;4973663;28;20437;-25
2023/12/14 02:30:25;;;;;;;10.23;8.40;;;10.40;99.90;;;;;;4994508;28;20434;-25
2023/12/14 02:32:53;;;;;;;9.07;7.60;;;10.40;99.90;;;;;;4986029;28;21258;-25
2023/12/14 02:35:25;;;;;;;10.30;7.97;;;10.40;99.90;;;;;;4967602;28;20561;-26
2023/12/14 02:37:54;;;;;;;9.83;7.93;;;10.40;99.90;;;;;;4970845;28;20437;-25
2023/12/14 02:40:20;;;;;;;12.20;8.60;;;10.40;99.90;;;;;;4986490;28;20928;-25
2023/12/14 02:42:49;;;;;;;10.40;8.07;;;10.40;99.90;;;;;;4986789;28;20559;-24
2023/12/14 02:45:15;;;;;;;10.07;8.53;;;10.40;99.90;;;;;;4969533;28;20489;-25
2023/12/14 02:47:44;;;;;;;11.17;9.00;;;10.40;99.90;;;;;;4973426;28;20453;-25
2023/12/14 02:50:14;;;;;;;10.90;8.37;;;10.40;99.90;;;;;;4987161;28;20449;-25
2023/12/14 02:52:42;;;;;;;10.53;8.27;;;10.40;99.90;;;;;;4970195;28;20448;-25
2023/12/14 02:55:09;;;;;;;8.23;7.30;;;10.40;99.90;;;;;;4988915;28;20473;-25
2023/12/14 02:57:35;;;;;;;9.17;7.70;;;10.40;99.90;;;;;;4986759;28;21008;-25
2023/12/14 03:00:05;;;;;;;9.83;8.03;;;10.40;99.90;;;;;;4987534;28;20429;-25
2023/12/14 03:02:31;;;;;;;9.73;8.57;;;10.40;99.90;;;;;;4982782;28;20430;-25
2023/12/14 03:04:58;;;;;;;11.03;8.27;;;10.40;99.90;;;;;;4971798;28;20476;-25
2023/12/14 03:07:28;;;;;;;10.60;8.00;;;10.40;99.90;;;;;;4969708;28;20450;-28
2023/12/14 03:09:56;;;;;;;9.93;8.30;;;10.40;99.90;;;;;;4968804;28;21177;-27
2023/12/14 03:12:22;;;;;;;10.40;8.57;;;10.40;99.90;;;;;;4990028;28;20429;-25
2023/12/14 03:14:50;;;;;;;11.43;8.37;;;10.30;99.90;;;;;;4987118;28;20217;-24
2023/12/14 03:17:19;;;;;;;10.90;8.70;;;10.40;99.90;;;;;;4990770;28;20417;-24
2023/12/14 03:19:45;;;;;;;12.10;9.10;;;10.30;99.90;;;;;;4992638;28;20451;-25
2023/12/14 03:22:13;;;;;;;10.80;9.17;;;10.30;99.90;;;;;;4982177;28;20417;-25
2023/12/14 03:24:40;;;;;;;10.67;8.87;;;10.30;99.90;;;;;;4966860;28;20457;-25
2023/12/14 03:27:08;;;;;;;11.80;10.00;;;10.30;99.90;;;;;;4991000;28;20814;-24
2023/12/14 03:29:40;;;;;;;12.37;9.83;;;10.40;99.90;;;;;;4969048;28;20476;-25
2023/12/14 03:32:09;;;;;;;10.27;8.60;;;10.30;99.90;;;;;;4980948;28;20488;-25
2023/12/14 03:34:35;;;;;;;12.20;9.30;;;10.40;99.90;;;;;;4989592;28;20476;-24
2023/12/14 03:37:01;;;;;;;13.20;9.43;;;10.30;99.90;;;;;;4997786;28;20445;-25
2023/12/14 03:39:27;;;;;;;12.00;9.40;;;10.30;99.90;;;;;;4974780;28;20473;-25
2023/12/14 03:41:55;;;;;;;10.83;8.80;;;10.30;99.90;;;;;;4997716;28;20464;-25
2023/12/14 03:44:23;;;;;;;10.87;8.80;;;10.40;99.90;;;;;;4997542;28;21175;-25
2023/12/14 03:46:50;;;;;;;10.90;9.13;;;10.30;99.90;;;;;;4998322;28;20437;-25
2023/12/14 03:49:16;;;;;;;10.43;8.60;;;10.30;99.90;;;;;;4982580;28;20914;-25
2023/12/14 03:51:45;;;;;;;10.20;8.20;;;10.30;99.90;;;;;;4997295;28;20429;-25
2023/12/14 03:54:13;;;;;;;10.80;9.07;;;10.30;99.90;;;;;;4999349;28;20435;-25
2023/12/14 03:56:42;;;;;;;11.60;9.13;;;10.30;99.90;;;;;;4995871;28;20540;-24
2023/12/14 03:59:08;;;;;;;14.63;9.90;;;10.30;99.90;;;;;;4961560;28;20433;-25
2023/12/14 04:01:36;;;;;;;10.33;8.53;;;10.30;99.90;;;;;;4978670;28;21073;-25
2023/12/14 04:04:02;;;;;;;11.97;8.70;;;10.30;99.90;;;;;;4997406;28;20429;-24
2023/12/14 04:06:28;;;;;;;9.77;8.03;;;10.30;99.90;;;;;;4979440;28;20456;-26
2023/12/14 04:08:57;;;;;;;13.30;9.87;;;10.30;99.90;;;;;;4996976;28;21406;-25
2023/12/14 04:11:25;;;;;;;10.60;8.50;;;10.30;99.90;;;;;;4978614;28;20471;-24
2023/12/14 04:13:53;;;;;;;11.90;8.27;;;10.30;99.90;;;;;;4988497;28;20507;-25
2023/12/14 04:16:22;;;;;;;10.10;8.33;;;10.30;99.90;;;;;;4996849;28;20483;-24
2023/12/14 04:18:48;;;;;;;11.97;9.23;;;10.30;99.90;;;;;;4978263;28;20550;-24
2023/12/14 04:21:14;;;;;;;9.97;8.03;;;10.30;99.90;;;;;;4997189;28;20508;-25
2023/12/14 04:23:40;;;;;;;13.57;9.50;;;10.30;99.90;;;;;;4998487;28;20575;-27
2023/12/14 04:26:09;;;;;;;12.17;9.57;;;10.30;99.90;;;;;;4998929;28;20457;-27
2023/12/14 04:28:35;;;;;;;10.63;9.00;;;10.30;99.90;;;;;;4997427;28;20960;-25
2023/12/14 04:31:04;;;;;;;13.50;10.30;;;10.30;99.90;;;;;;4998550;28;20539;-27
2023/12/14 04:33:31;;;;;;;14.60;9.17;;;10.30;99.90;;;;;;4978295;28;20456;-27
2023/12/14 04:36:00;;;;;;;14.90;10.23;;;10.30;99.90;;;;;;4997482;28;20471;-25
2023/12/14 04:38:26;;;;;;;13.10;10.23;;;10.30;99.90;;;;;;4993717;28;20444;-24
2023/12/14 04:40:54;;;;;;;13.10;10.50;;;10.30;99.90;;;;;;4995433;28;20424;-25
2023/12/14 04:43:20;;;;;;;13.63;9.77;;;10.30;99.90;;;;;;4961397;28;20437;-24
2023/12/14 04:45:49;;;;;;;14.60;9.60;;;10.20;99.90;;;;;;4961901;28;20451;-25
2023/12/14 04:48:17;;;;;;;16.10;10.57;;;10.30;99.90;;;;;;4974810;28;20448;-25
2023/12/14 04:50:46;;;;;;;17.37;11.33;;;10.20;99.90;;;;;;4995163;28;20750;-24
2023/12/14 04:53:12;;;;;;;15.70;10.90;;;10.30;99.90;;;;;;4976629;28;20860;-24
2023/12/14 04:55:38;;;;;;;15.43;10.80;;;10.20;99.90;;;;;;4993615;28;20480;-25
2023/12/14 04:58:03;;;;;;;14.60;10.60;;;10.30;99.90;;;;;;4997340;28;20437;-25
2023/12/14 05:00:32;;;;;;;13.70;9.83;;;10.30;99.90;;;;;;4993180;28;20432;-25
2023/12/14 05:02:58;;;;;;;15.83;11.40;;;10.30;99.90;;;;;;4978069;28;20452;-28
2023/12/14 05:05:26;;;;;;;14.83;11.33;;;10.20;99.90;;;;;;4997046;28;20448;-27
2023/12/14 05:07:52;;;;;;;15.60;10.83;;;10.20;99.90;;;;;;4997318;28;20443;-26
2023/12/14 05:10:18;;;;;;;16.20;11.00;;;10.20;99.90;;;;;;4981520;28;20440;-25
2023/12/14 05:12:44;;;;;;;17.50;12.33;;;10.20;99.90;;;;;;4981511;28;20436;-26
2023/12/14 05:15:11;;;;;;;13.83;10.60;;;10.20;99.90;;;;;;4983732;28;20464;-27
2023/12/14 05:17:37;;;;;;;16.67;11.03;;;10.20;99.90;;;;;;4996096;28;20515;-27
2023/12/14 05:20:11;;;;;;;15.30;10.27;;;10.20;99.90;;;;;;4997945;28;20451;-27
2023/12/14 05:22:37;;;;;;;16.00;11.70;;;10.20;99.90;;;;;;4965343;28;21245;-27
2023/12/14 05:25:06;;;;;;;16.03;11.30;;;10.20;99.90;;;;;;4979583;28;21326;-27
2023/12/14 05:27:32;;;;;;;16.10;10.50;;;10.20;99.90;;;;;;4982972;28;21056;-27
2023/12/14 05:29:58;;;;;;;14.90;10.27;;;10.20;99.90;;;;;;5001710;28;20443;-27
2023/12/14 05:32:26;;;;;;;16.40;11.80;;;10.20;99.90;;;;;;4998713;28;20456;-26
2023/12/14 05:34:52;;;;;;;14.27;11.20;;;10.20;99.90;;;;;;5000194;28;20452;-27
2023/12/14 05:37:18;;;;;;;15.40;11.17;;;10.20;99.90;;;;;;4981891;28;20456;-26
2023/12/14 05:39:49;;;;;;;15.93;11.03;;;10.20;99.90;;;;;;4983435;28;20518;-27
2023/12/14 05:42:18;;;;;;;14.67;9.97;;;10.20;99.90;;;;;;5000457;28;20428;-26
2023/12/14 05:44:46;;;;;;;16.37;11.17;;;10.20;99.90;;;;;;4998846;28;20441;-27
2023/12/14 05:47:12;;;;;;;13.47;10.30;;;10.20;99.90;;;;;;4999997;28;20432;-27
2023/12/14 05:49:45;;;;;;;16.60;11.30;;;10.20;99.90;;;;;;4966196;28;21444;-27
2023/12/14 05:52:11;;;;;;;17.37;11.57;;;10.20;99.90;;;;;;4965927;28;20452;-26
2023/12/14 05:54:40;;;;;;;17.53;12.20;;;10.20;99.90;;;;;;4978624;28;20546;-27
2023/12/14 05:57:08;;;;;;;16.73;11.07;;;10.10;99.90;;;;;;4982449;28;20444;-27
2023/12/14 05:59:34;;;;;;;14.73;10.80;;;10.20;99.90;;;;;;5000070;28;20983;-25
2023/12/14 06:02:00;;;;;;;19.20;11.10;;;10.20;99.90;;;;;;5000710;28;20436;-26
2023/12/14 06:04:27;;;;;;;15.40;10.57;;;10.20;99.90;;;;;;4981469;28;20483;-27
2023/12/14 06:06:56;;;;;;;14.60;10.20;;;10.20;99.90;;;;;;4986444;28;20880;-27
2023/12/14 06:09:31;;;;;;;17.07;11.30;;;10.10;99.90;;;;;;4996368;28;20425;-26
2023/12/14 06:12:01;;;;;;;14.17;11.13;;;10.20;99.90;;;;;;4982673;28;21173;-26
2023/12/14 06:14:27;;;;;;;14.03;10.50;;;10.20;99.90;;;;;;4997057;28;20432;-27
2023/12/14 06:16:55;;;;;;;13.17;10.20;;;10.10;99.90;;;;;;4987432;28;20472;-26
2023/12/14 06:19:24;;;;;;;19.17;10.60;;;10.20;99.90;;;;;;4999782;28;21219;-26
2023/12/14 06:21:53;;;;;;;17.30;11.17;;;10.10;99.90;;;;;;4981111;28;20429;-26
2023/12/14 06:24:20;;;;;;;14.07;10.87;;;10.20;99.90;;;;;;4999572;28;20440;-26
2023/12/14 06:26:46;;;;;;;12.90;9.47;;;10.10;99.90;;;;;;4994391;28;20476;-26
2023/12/14 06:29:12;;;;;;;14.20;10.57;;;10.10;99.90;;;;;;4979530;28;20473;-26
2023/12/14 06:31:39;;;;;;;14.07;10.87;;;10.10;99.90;;;;;;4980743;28;20446;-26
2023/12/14 06:34:08;;;;;;;15.50;11.63;;;10.10;99.90;;;;;;4998288;28;20429;-26
2023/12/14 06:36:34;;;;;;;16.37;10.90;;;10.10;99.90;;;;;;5000347;28;20495;-27
2023/12/14 06:39:03;;;;;;;13.40;10.33;;;10.10;99.90;;;;;;5001115;28;20425;-26
2023/12/14 06:41:34;;;;;;;15.67;10.83;;;10.10;99.90;;;;;;5000466;28;20517;-26
2023/12/14 06:44:05;;;;;;;16.07;10.90;;;10.10;99.90;;;;;;4981365;28;20417;-27
2023/12/14 06:46:31;;;;;;;14.60;10.80;;;10.10;99.90;;;;;;4998370;28;20459;-27
2023/12/14 06:48:57;;;;;;;13.73;9.47;;;10.10;99.90;;;;;;5000045;28;20436;-27
2023/12/14 06:51:25;;;;;;;15.23;10.40;;;10.10;99.90;;;;;;4980486;28;20433;-26
2023/12/14 06:53:54;;;;;;;16.40;11.23;;;10.10;99.90;;;;;;4982234;28;20499;-27
2023/12/14 06:56:22;;;;;;;16.70;11.03;;;10.10;99.90;;;;;;5000445;28;20487;-27
2023/12/14 06:58:49;;;;;;;15.27;11.13;;;10.10;99.90;;;;;;4982195;28;20435;-27
2023/12/14 07:01:17;;;;;;;17.33;11.73;;;10.10;99.90;;;;;;4998919;28;20468;-26
2023/12/14 07:03:48;;;;;;;16.20;12.50;;;10.10;99.90;;;;;;4998754;28;20425;-26
2023/12/14 07:06:18;;;;;;;18.30;13.13;;;10.10;99.90;;;;;;4964748;28;20553;-28
2023/12/14 07:08:47;;;;;;;17.27;12.07;;;10.10;99.90;;;;;;4977865;28;20447;-27
2023/12/14 07:11:17;;;;;;;15.77;11.77;;;10.10;99.90;;;;;;4997104;28;20432;-26
2023/12/14 07:13:46;;;;;;;14.40;10.60;;;10.00;99.90;;;;;;4965491;28;20574;-27
2023/12/14 07:16:12;;;;;;;14.27;11.87;;;10.00;99.90;;;;;;4998724;28;20476;-26
2023/12/14 07:18:41;;;;;;;17.70;12.70;;;10.00;99.90;;;;;;4999228;28;20451;-27
2023/12/14 07:21:10;;;;;;;19.07;12.27;;;10.10;99.90;;;;;;4999373;28;21279;-26
2023/12/14 07:23:37;;;;;;;16.57;11.43;;;10.00;99.90;;;;;;4993533;28;20475;-26
2023/12/14 07:26:03;;;;;;;14.97;11.10;;;10.10;99.90;;;;;;4999383;28;20448;-26
2023/12/14 07:28:29;;;;;;;20.00;13.23;;;10.10;99.90;;;;;;4998397;28;20464;-27
2023/12/14 07:30:55;;;;;;;19.27;14.53;;;10.10;99.90;;;;;;4998444;28;20448;-28
2023/12/14 07:33:21;;;;;;;17.00;12.07;;;10.00;99.90;;;;;;4996741;28;20428;-27
2023/12/14 07:35:47;;;;;;;18.93;12.53;;;10.00;99.90;;;;;;4998113;28;20607;-26
2023/12/14 07:38:14;;;;;;;15.30;11.30;;;10.00;99.90;;;;;;4979992;28;21164;-27
2023/12/14 07:40:49;;;;;;;20.00;13.73;;;10.00;99.90;;;;;;4998665;28;20801;-26
2023/12/14 07:43:15;;;;;;;20.20;13.40;;;10.00;99.90;;;;;;4996007;28;20515;-31
2023/12/14 07:45:42;;;;;;;19.40;12.40;;;10.00;99.90;;;;;;4996900;28;20488;-27
2023/12/14 07:48:08;;;;;;;20.53;13.87;;;10.00;99.90;;;;;;4999364;28;20535;-26
2023/12/14 07:50:34;;;;;;;17.20;12.57;;;10.00;99.90;;;;;;4977707;28;21052;-26
2023/12/14 07:53:00;;;;;;;19.03;13.33;;;10.00;99.90;;;;;;4999025;28;20483;-26
2023/12/14 07:55:26;;;;;;;23.13;14.00;;;10.00;99.90;;;;;;4997362;28;21333;-26
2023/12/14 07:57:52;;;;;;;17.10;12.13;;;10.00;99.90;;;;;;4993754;28;20927;-26
2023/12/14 08:00:18;;;;;;;19.47;13.50;;;10.00;99.90;;;;;;4997415;28;20455;-27
2023/12/14 08:02:44;;;;;;;30.83;16.40;;;10.00;99.90;;;;;;4963127;28;20448;-27
2023/12/14 08:05:10;;;;;;;21.40;14.23;;;10.00;99.90;;;;;;4993080;28;20453;-26
2023/12/14 08:07:37;;;;;;;20.43;14.77;;;10.00;99.90;;;;;;4990857;28;20506;-26
2023/12/14 08:10:06;;;;;;;25.40;15.10;;;10.00;99.90;;;;;;4994027;28;20437;-27
2023/12/14 08:12:36;;;;;;;19.73;13.93;;;10.00;99.90;;;;;;4989978;28;20445;-27
2023/12/14 08:15:05;;;;;;;24.00;14.60;;;10.00;99.90;;;;;;4962536;28;20496;-27
2023/12/14 08:17:33;;;;;;;22.50;15.27;;;10.00;99.90;;;;;;4993788;28;20892;-26
2023/12/14 08:19:59;;;;;;;23.40;16.67;;;10.00;99.90;;;;;;4977754;28;20413;-26
2023/12/14 08:22:25;;;;;;;21.60;14.20;;;10.00;99.90;;;;;;4994240;28;20462;-27
2023/12/14 08:24:52;;;;;;;23.07;14.60;;;10.00;99.90;;;;;;4997818;28;20528;-28
2023/12/14 08:27:18;;;;;;;21.03;14.97;;;10.00;99.90;;;;;;4997130;28;20444;-27
2023/12/14 08:29:45;;;;;;;22.80;14.70;;;10.00;99.90;;;;;;4996168;28;20445;-26
2023/12/14 08:32:12;;;;;;;23.00;15.00;;;10.00;99.90;;;;;;4992647;28;20428;-27
2023/12/14 08:34:38;;;;;;;22.43;15.00;;;10.00;99.90;;;;;;4996471;28;20529;-27
2023/12/14 08:37:04;;;;;;;22.33;15.47;;;10.00;99.90;;;;;;4994390;28;20472;-27
2023/12/14 08:39:32;;;;;;;24.67;16.17;;;10.00;99.90;;;;;;4995071;28;20912;-26
2023/12/14 08:41:58;;;;;;;19.97;15.13;;;10.00;99.90;;;;;;4976011;28;21195;-26
2023/12/14 08:44:24;;;;;;;22.07;14.97;;;10.00;99.90;;;;;;4990232;28;20436;-26
2023/12/14 08:46:50;;;;;;;24.03;16.87;;;10.00;99.90;;;;;;4982376;28;20468;-26
2023/12/14 08:49:16;;;;;;;21.80;14.13;;;9.90;99.90;;;;;;4998123;28;20436;-26
2023/12/14 08:51:45;;;;;;;24.80;16.17;;;10.00;99.90;;;;;;5000536;28;20424;-26
2023/12/14 08:54:12;;;;;;;21.60;14.77;;;10.00;99.90;;;;;;4998023;28;21041;-26
2023/12/14 08:56:40;;;;;;;24.67;16.23;;;10.00;99.90;;;;;;4997414;28;20785;-27
2023/12/14 08:59:07;;;;;;;22.27;16.83;;;10.00;99.90;;;;;;4997626;28;20459;-26
2023/12/14 09:01:33;;;;;;;25.13;15.97;;;9.90;99.90;;;;;;4979028;28;21152;-27
2023/12/14 09:04:00;;;;;;;25.17;17.23;;;9.90;99.90;;;;;;4979973;28;20455;-27
2023/12/14 09:06:26;;;;;;;24.23;16.17;;;9.90;99.90;;;;;;4997203;28;20475;-27
2023/12/14 09:08:52;;;;;;;24.93;18.10;;;9.90;99.90;;;;;;4981730;28;20428;-26
2023/12/14 09:11:18;;;;;;;24.40;15.83;;;9.90;99.90;;;;;;4996634;28;20428;-27
2023/12/14 09:13:44;;;;;;;23.73;15.67;;;9.90;99.90;;;;;;4999004;28;20954;-26
2023/12/14 09:16:11;;;;;;;24.93;16.40;;;9.90;99.90;;;;;;4982412;28;20490;-27
2023/12/14 09:18:37;;;;;;;23.17;15.70;;;9.90;99.90;;;;;;4995257;28;20523;-26
2023/12/14 09:21:04;;;;;;;28.87;16.83;;;9.90;99.90;;;;;;5001328;28;20416;-26
2023/12/14 09:23:30;;;;;;;23.33;16.30;;;9.90;99.90;;;;;;4999119;28;20872;-26
2023/12/14 09:25:56;;;;;;;22.83;16.60;;;9.90;99.90;;;;;;4999476;28;20499;-26
2023/12/14 09:28:22;;;;;;;23.70;16.30;;;9.90;99.90;;;;;;4980549;28;20447;-26
2023/12/14 09:30:48;;;;;;;25.67;16.77;;;9.90;99.90;;;;;;4982438;28;20428;-26
2023/12/14 09:33:14;;;;;;;25.00;15.80;;;9.90;99.90;;;;;;4970966;28;20441;-26
2023/12/14 09:35:41;;;;;;;24.43;16.43;;;9.90;99.90;;;;;;4974518;28;20580;-27
2023/12/14 09:38:07;;;;;;;24.70;16.93;;;9.90;99.90;;;;;;4958102;28;20424;-27
2023/12/14 09:40:34;;;;;;;25.60;17.20;;;9.90;99.90;;;;;;4982155;28;20437;-27
2023/12/14 09:43:01;;;;;;;21.60;15.00;;;9.90;99.90;;;;;;4996491;28;20445;-28
2023/12/14 09:45:30;;;;;;;21.47;15.40;;;9.90;99.90;;;;;;4987415;28;21289;-26
2023/12/14 09:48:01;;;;;;;22.80;15.73;;;9.90;99.90;;;;;;4969774;28;20931;-26
2023/12/14 09:50:30;;;;;;;21.80;15.67;;;9.90;99.90;;;;;;4992348;28;20423;-27
2023/12/14 09:52:59;;;;;;;22.30;14.97;;;9.90;99.90;;;;;;4986596;28;20566;-26
2023/12/14 09:55:26;;;;;;;19.27;14.90;;;9.90;99.90;;;;;;4989424;28;21915;-27
2023/12/14 09:57:52;;;;;;;21.73;14.77;;;9.90;99.90;;;;;;5002663;28;20460;-27
2023/12/14 10:00:40;;;;;;;23.70;16.40;;;9.90;99.90;;;;;;5005447;28;20470;-26
2023/12/14 10:03:20;;;;;;;23.00;16.07;;;9.90;99.90;;;;;;4975081;28;20420;-26
2023/12/14 10:05:48;;;;;;;21.63;15.27;;;9.90;99.90;;;;;;4997655;28;20908;-26
2023/12/14 10:08:16;;;;;;;24.20;16.07;;;9.80;99.90;;;;;;4978970;28;20436;-27
2023/12/14 10:10:43;;;;;;;20.90;14.77;;;9.90;99.90;;;;;;4980125;28;20432;-26
2023/12/14 10:13:10;;;;;;;22.50;15.23;;;9.80;99.90;;;;;;4979264;28;20475;-27
2023/12/14 10:15:44;;;;;;;22.93;16.53;;;9.80;99.90;;;;;;4997161;28;21000;-26
2023/12/14 10:18:27;;;;;;;21.60;15.80;;;9.80;99.90;;;;;;4981183;28;20892;-26
2023/12/14 10:20:56;;;;;;;21.57;14.47;;;9.80;99.90;;;;;;4994638;28;20503;-26
2023/12/14 10:23:25;;;;;;;19.50;13.83;;;9.80;99.90;;;;;;4992902;28;20433;-26
2023/12/14 10:25:53;;;;;;;21.10;14.90;;;9.80;99.90;;;;;;4998879;28;20452;-27
2023/12/14 10:28:21;;;;;;;21.53;15.23;;;9.80;99.90;;;;;;4997640;28;20424;-27
2023/12/14 10:30:47;;;;;;;21.83;15.03;;;9.80;99.90;;;;;;4981174;28;20436;-26
2023/12/14 10:33:16;;;;;;;22.13;14.80;;;9.80;99.90;;;;;;4997803;28;20455;-27
2023/12/14 10:35:43;;;;;;;21.10;14.37;;;9.80;99.90;;;;;;4964026;28;21212;-26
2023/12/14 10:38:12;;;;;;;24.80;14.80;;;9.80;99.90;;;;;;4999677;28;20511;-26
2023/12/14 10:40:43;;;;;;;20.70;14.70;;;9.80;99.90;;;;;;4973601;28;20529;-27
2023/12/14 10:43:11;;;;;;;19.70;15.33;;;9.80;99.90;;;;;;4999164;28;20433;-27
2023/12/14 10:45:39;;;;;;;20.17;14.30;;;9.80;99.90;;;;;;4999199;28;20545;-27
2023/12/14 10:48:09;;;;;;;22.33;14.77;;;9.80;99.90;;;;;;4979230;28;21122;-27
2023/12/14 10:50:36;;;;;;;20.10;14.20;;;9.80;99.90;;;;;;4996426;28;20416;-27
2023/12/14 10:53:04;;;;;;;19.97;13.10;;;9.80;99.90;;;;;;4999146;28;20451;-26
2023/12/14 10:55:43;;;;;;;19.20;14.40;;;9.80;99.90;;;;;;4998220;28;20472;-27
2023/12/14 10:58:12;;;;;;;16.83;13.10;;;9.80;99.90;;;;;;4990414;28;21066;-26
2023/12/14 11:00:44;;;;;;;18.33;12.50;;;9.80;99.90;;;;;;4996854;28;20977;-26
2023/12/14 11:03:17;;;;;;;20.43;13.63;;;9.80;99.90;;;;;;4994911;28;20460;-26
2023/12/14 11:05:43;;;;;;;19.63;13.03;;;9.80;99.90;;;;;;4974560;28;20456;-27
2023/12/14 11:08:09;;;;;;;18.10;13.30;;;9.80;99.90;;;;;;5003985;28;20417;-26
2023/12/14 11:10:38;;;;;;;17.27;12.70;;;9.80;99.90;;;;;;4963294;28;20434;-26
2023/12/14 11:13:11;;;;;;;19.63;15.30;;;9.80;99.90;;;;;;4996079;28;20778;-27
2023/12/14 11:15:39;;;;;;;17.70;12.97;;;9.80;99.90;;;;;;4978245;28;20472;-26
2023/12/14 11:18:08;;;;;;;20.07;13.80;;;9.80;99.90;;;;;;4978898;28;20433;-28
2023/12/14 11:20:50;;;;;;;18.07;12.70;;;9.80;99.90;;;;;;4961146;28;20444;-27
2023/12/14 11:23:40;;;;;;;16.93;13.07;;;9.80;99.90;;;;;;4979881;28;20444;-26
2023/12/14 11:26:09;;;;;;;17.77;12.57;;;9.80;99.90;;;;;;4973095;28;20447;-26
2023/12/14 11:28:45;;;;;;;15.50;12.57;;;9.80;99.90;;;;;;4995396;28;20490;-27
2023/12/14 11:31:12;;;;;;;17.27;14.10;;;9.80;99.90;;;;;;4998790;28;20453;-26
2023/12/14 11:33:41;;;;;;;16.30;12.30;;;9.80;99.90;;;;;;4995321;28;20433;-27
2023/12/14 11:36:08;;;;;;;15.87;12.20;;;9.70;99.90;;;;;;4980640;28;20468;-26
2023/12/14 11:38:35;;;;;;;17.10;12.50;;;9.80;99.90;;;;;;4995847;28;20447;-26
2023/12/14 11:41:02;;;;;;;16.97;12.67;;;9.80;99.90;;;;;;4998530;28;20444;-26
2023/12/14 11:43:28;;;;;;;16.40;11.23;;;9.80;99.90;;;;;;4993503;28;20559;-26
2023/12/14 11:45:55;;;;;;;16.70;12.20;;;9.80;99.90;;;;;;4979634;28;20930;-27
2023/12/14 11:48:22;;;;;;;15.33;11.50;;;9.70;99.90;;;;;;4977790;28;20519;-27
2023/12/14 11:50:48;;;;;;;18.43;13.13;;;9.70;99.90;;;;;;4993073;28;20491;-27
2023/12/14 11:53:16;;;;;;;16.37;11.77;;;9.70;99.90;;;;;;4992886;28;20476;-27
2023/12/14 11:55:43;;;;;;;17.00;12.87;;;9.80;99.90;;;;;;4997155;28;20576;-26
2023/12/14 11:58:15;;;;;;;16.20;11.13;;;9.70;99.90;;;;;;4978452;28;20448;-26
2023/12/14 12:00:47;;;;;;;17.40;11.40;;;9.80;99.90;;;;;;4995926;28;21051;-26
2023/12/14 12:03:20;;;;;;;15.53;11.20;;;9.70;99.90;;;;;;4996663;28;20528;-27
2023/12/14 12:05:52;;;;;;;13.77;9.90;;;9.70;99.90;;;;;;4976583;28;20559;-26
2023/12/14 12:08:20;;;;;;;15.20;10.70;;;9.70;99.90;;;;;;4978397;28;20460;-26
2023/12/14 12:10:47;;;;;;;13.43;9.90;;;9.70;99.90;;;;;;4996790;28;20429;-27
2023/12/14 12:13:16;;;;;;;12.33;9.83;;;9.70;99.90;;;;;;4997450;28;20425;-27
2023/12/14 12:15:42;;;;;;;13.20;10.17;;;9.70;99.90;;;;;;4990636;28;21844;-27
2023/12/14 12:18:18;;;;;;;16.73;11.03;;;9.70;99.90;;;;;;4995571;28;20436;-26
2023/12/14 12:20:47;;;;;;;12.33;10.37;;;9.70;99.90;;;;;;4975719;28;20998;-27
2023/12/14 12:23:13;;;;;;;13.10;10.77;;;9.70;99.90;;;;;;4978999;28;20437;-26
2023/12/14 12:25:41;;;;;;;12.90;10.20;;;9.70;99.90;;;;;;4974807;28;20539;-27
2023/12/14 12:28:07;;;;;;;11.50;9.70;;;9.70;99.90;;;;;;4979175;28;20498;-26
2023/12/14 12:30:33;;;;;;;11.50;9.50;;;9.70;99.90;;;;;;4961436;28;20439;-26
2023/12/14 12:33:02;;;;;;;12.63;10.10;;;9.70;99.90;;;;;;4995607;28;20425;-27
2023/12/14 12:35:30;;;;;;;11.00;8.80;;;9.70;99.90;;;;;;4994691;28;20598;-26
2023/12/14 12:37:58;;;;;;;10.50;9.30;;;9.70;99.90;;;;;;4978039;28;20532;-26